sensor_id;sensor_type;location;lat;lon;timestamp;P1;durP1;ratioP1;P2;durP2;ratioP2
57047;SDS011;42934;54.294;18.598;2023-05-03T16:16:40;11.05;;;3.13;;
57047;SDS011;42934;54.294;18.598;2023-05-03T16:19:11;4.45;;;2.47;;
57047;SDS011;42934;54.294;18.598;2023-05-03T16:21:40;7.47;;;2.53;;
57047;SDS011;42934;54.294;18.598;2023-05-03T16:24:09;4.85;;;2.03;;
57047;SDS011;42934;54.294;18.598;2023-05-03T16:26:39;4.72;;;2.40;;
57047;SDS011;42934;54.294;18.598;2023-05-03T16:29:09;5.30;;;2.28;;
57047;SDS011;42934;54.294;18.598;2023-05-03T16:31:39;5.55;;;2.00;;
57047;SDS011;42934;54.294;18.598;2023-05-03T16:34:09;8.85;;;3.85;;
57047;SDS011;42934;54.294;18.598;2023-05-03T16:36:38;12.02;;;6.10;;
57047;SDS011;42934;54.294;18.598;2023-05-03T16:39:10;10.85;;;3.55;;
57047;SDS011;42934;54.294;18.598;2023-05-03T16:41:40;8.32;;;3.92;;
57047;SDS011;42934;54.294;18.598;2023-05-03T16:44:09;9.65;;;4.63;;
57047;SDS011;42934;54.294;18.598;2023-05-03T16:46:40;9.80;;;4.32;;
57047;SDS011;42934;54.294;18.598;2023-05-03T16:49:11;5.55;;;3.05;;
57047;SDS011;42934;54.294;18.598;2023-05-03T16:51:41;5.85;;;3.25;;
57047;SDS011;42934;54.294;18.598;2023-05-03T16:54:10;10.10;;;3.63;;
57047;SDS011;42934;54.294;18.598;2023-05-03T16:56:42;4.43;;;1.70;;
57047;SDS011;42934;54.294;18.598;2023-05-03T16:59:12;7.07;;;3.03;;
57047;SDS011;42934;54.294;18.598;2023-05-03T17:01:44;7.85;;;3.45;;
57047;SDS011;42934;54.294;18.598;2023-05-03T17:04:13;9.95;;;4.13;;
57047;SDS011;42934;54.294;18.598;2023-05-03T17:06:43;11.10;;;5.75;;
57047;SDS011;42934;54.294;18.598;2023-05-03T17:09:15;8.18;;;3.60;;
57047;SDS011;42934;54.294;18.598;2023-05-03T17:11:44;13.23;;;2.45;;
57047;SDS011;42934;54.294;18.598;2023-05-03T17:14:13;7.53;;;2.83;;
57047;SDS011;42934;54.294;18.598;2023-05-03T17:16:44;6.55;;;2.47;;
57047;SDS011;42934;54.294;18.598;2023-05-03T17:19:14;5.90;;;2.47;;
57047;SDS011;42934;54.294;18.598;2023-05-03T17:21:45;7.90;;;2.80;;
57047;SDS011;42934;54.294;18.598;2023-05-03T17:24:14;6.07;;;2.60;;
57047;SDS011;42934;54.294;18.598;2023-05-03T17:26:43;6.88;;;3.20;;
57047;SDS011;42934;54.294;18.598;2023-05-03T17:29:13;9.73;;;2.80;;
57047;SDS011;42934;54.294;18.598;2023-05-03T17:31:42;7.28;;;2.63;;
57047;SDS011;42934;54.294;18.598;2023-05-03T17:34:13;8.73;;;3.08;;
57047;SDS011;42934;54.294;18.598;2023-05-03T17:36:42;10.00;;;3.03;;
57047;SDS011;42934;54.294;18.598;2023-05-03T17:39:11;9.43;;;3.50;;
57047;SDS011;42934;54.294;18.598;2023-05-03T17:41:44;10.93;;;3.22;;
57047;SDS011;42934;54.294;18.598;2023-05-03T17:44:13;10.63;;;3.30;;
57047;SDS011;42934;54.294;18.598;2023-05-03T17:46:45;9.43;;;3.35;;
57047;SDS011;42934;54.294;18.598;2023-05-03T17:49:15;9.00;;;3.25;;
57047;SDS011;42934;54.294;18.598;2023-05-03T17:54:14;5.47;;;2.78;;
57047;SDS011;42934;54.294;18.598;2023-05-03T17:59:13;8.43;;;2.40;;
57047;SDS011;42934;54.294;18.598;2023-05-03T18:01:45;8.35;;;2.80;;
57047;SDS011;42934;54.294;18.598;2023-05-03T18:04:14;12.73;;;2.80;;
57047;SDS011;42934;54.294;18.598;2023-05-03T18:06:44;12.07;;;3.00;;
57047;SDS011;42934;54.294;18.598;2023-05-03T18:09:13;10.95;;;2.88;;
57047;SDS011;42934;54.294;18.598;2023-05-03T18:11:42;12.18;;;3.38;;
57047;SDS011;42934;54.294;18.598;2023-05-03T18:14:12;8.90;;;3.42;;
57047;SDS011;42934;54.294;18.598;2023-05-03T18:19:12;11.85;;;3.65;;
57047;SDS011;42934;54.294;18.598;2023-05-03T18:21:41;17.07;;;3.73;;
57047;SDS011;42934;54.294;18.598;2023-05-03T18:24:11;10.32;;;3.30;;
57047;SDS011;42934;54.294;18.598;2023-05-03T18:26:41;10.68;;;3.38;;
57047;SDS011;42934;54.294;18.598;2023-05-03T18:29:10;12.30;;;3.50;;
57047;SDS011;42934;54.294;18.598;2023-05-03T18:31:40;11.17;;;3.20;;
57047;SDS011;42934;54.294;18.598;2023-05-03T18:34:10;12.02;;;3.50;;
57047;SDS011;42934;54.294;18.598;2023-05-03T18:36:40;15.73;;;3.85;;
57047;SDS011;42934;54.294;18.598;2023-05-03T18:39:09;12.35;;;3.50;;
57047;SDS011;42934;54.294;18.598;2023-05-03T18:41:38;12.05;;;3.17;;
57047;SDS011;42934;54.294;18.598;2023-05-03T18:44:07;10.25;;;3.00;;
57047;SDS011;42934;54.294;18.598;2023-05-03T18:46:37;9.00;;;3.28;;
57047;SDS011;42934;54.294;18.598;2023-05-03T18:49:06;11.55;;;3.65;;
57047;SDS011;42934;54.294;18.598;2023-05-03T18:51:37;12.10;;;3.72;;
57047;SDS011;42934;54.294;18.598;2023-05-03T18:54:07;8.75;;;3.50;;
57047;SDS011;42934;54.294;18.598;2023-05-03T18:56:37;10.65;;;3.83;;
57047;SDS011;42934;54.294;18.598;2023-05-03T18:59:06;11.55;;;3.92;;
57047;SDS011;42934;54.294;18.598;2023-05-03T19:01:35;8.95;;;4.28;;
57047;SDS011;42934;54.294;18.598;2023-05-03T19:04:05;9.30;;;3.92;;
57047;SDS011;42934;54.294;18.598;2023-05-03T19:06:34;8.77;;;4.43;;
57047;SDS011;42934;54.294;18.598;2023-05-03T19:09:04;10.82;;;3.63;;
57047;SDS011;42934;54.294;18.598;2023-05-03T19:11:39;7.65;;;3.72;;
57047;SDS011;42934;54.294;18.598;2023-05-03T19:14:09;9.25;;;3.72;;
57047;SDS011;42934;54.294;18.598;2023-05-03T19:16:39;13.85;;;4.15;;
57047;SDS011;42934;54.294;18.598;2023-05-03T19:19:08;11.52;;;4.28;;
57047;SDS011;42934;54.294;18.598;2023-05-03T19:21:41;10.48;;;3.90;;
57047;SDS011;42934;54.294;18.598;2023-05-03T19:24:10;7.88;;;3.65;;
57047;SDS011;42934;54.294;18.598;2023-05-03T19:26:41;13.07;;;3.53;;
57047;SDS011;42934;54.294;18.598;2023-05-03T19:29:10;9.00;;;3.67;;
57047;SDS011;42934;54.294;18.598;2023-05-03T19:31:39;14.48;;;4.13;;
57047;SDS011;42934;54.294;18.598;2023-05-03T19:34:08;8.85;;;4.38;;
57047;SDS011;42934;54.294;18.598;2023-05-03T19:36:38;12.85;;;5.38;;
57047;SDS011;42934;54.294;18.598;2023-05-03T19:39:08;11.68;;;3.97;;
57047;SDS011;42934;54.294;18.598;2023-05-03T19:41:39;16.85;;;4.65;;
57047;SDS011;42934;54.294;18.598;2023-05-03T19:44:08;10.38;;;3.97;;
57047;SDS011;42934;54.294;18.598;2023-05-03T19:46:37;8.53;;;3.47;;
57047;SDS011;42934;54.294;18.598;2023-05-03T19:49:07;11.48;;;3.55;;
57047;SDS011;42934;54.294;18.598;2023-05-03T19:51:36;14.47;;;4.10;;
57047;SDS011;42934;54.294;18.598;2023-05-03T19:54:06;9.20;;;3.63;;
57047;SDS011;42934;54.294;18.598;2023-05-03T19:56:36;7.22;;;2.90;;
57047;SDS011;42934;54.294;18.598;2023-05-03T19:59:05;14.20;;;4.18;;
57047;SDS011;42934;54.294;18.598;2023-05-03T20:01:34;20.13;;;4.82;;
57047;SDS011;42934;54.294;18.598;2023-05-03T20:04:03;8.75;;;4.55;;
57047;SDS011;42934;54.294;18.598;2023-05-03T20:06:33;13.65;;;4.75;;
57047;SDS011;42934;54.294;18.598;2023-05-03T20:09:04;11.80;;;4.55;;
57047;SDS011;42934;54.294;18.598;2023-05-03T20:11:35;11.85;;;4.40;;
57047;SDS011;42934;54.294;18.598;2023-05-03T20:14:04;12.10;;;4.60;;
57047;SDS011;42934;54.294;18.598;2023-05-03T20:16:34;11.93;;;4.57;;
57047;SDS011;42934;54.294;18.598;2023-05-03T20:19:05;12.98;;;4.63;;
57047;SDS011;42934;54.294;18.598;2023-05-03T20:21:35;21.65;;;9.50;;
57047;SDS011;42934;54.294;18.598;2023-05-03T20:24:04;18.10;;;7.20;;
57047;SDS011;42934;54.294;18.598;2023-05-03T20:26:36;13.88;;;5.65;;
57047;SDS011;42934;54.294;18.598;2023-05-03T20:29:06;14.88;;;7.15;;
57047;SDS011;42934;54.294;18.598;2023-05-03T20:31:36;15.95;;;5.85;;
57047;SDS011;42934;54.294;18.598;2023-05-03T20:34:06;14.15;;;5.60;;
57047;SDS011;42934;54.294;18.598;2023-05-03T20:36:35;18.88;;;6.20;;
57047;SDS011;42934;54.294;18.598;2023-05-03T20:39:04;17.33;;;5.97;;
57047;SDS011;42934;54.294;18.598;2023-05-03T20:41:36;16.75;;;7.28;;
57047;SDS011;42934;54.294;18.598;2023-05-03T20:44:06;18.45;;;8.60;;
57047;SDS011;42934;54.294;18.598;2023-05-03T20:46:35;23.17;;;9.32;;
57047;SDS011;42934;54.294;18.598;2023-05-03T20:49:05;19.13;;;8.70;;
57047;SDS011;42934;54.294;18.598;2023-05-03T20:51:36;18.02;;;8.23;;
57047;SDS011;42934;54.294;18.598;2023-05-03T20:54:07;20.20;;;7.95;;
57047;SDS011;42934;54.294;18.598;2023-05-03T20:56:36;16.52;;;8.38;;
57047;SDS011;42934;54.294;18.598;2023-05-03T20:59:05;18.58;;;8.68;;
57047;SDS011;42934;54.294;18.598;2023-05-03T21:01:37;23.85;;;9.57;;
57047;SDS011;42934;54.294;18.598;2023-05-03T21:04:06;25.73;;;11.82;;
57047;SDS011;42934;54.294;18.598;2023-05-03T21:06:36;29.07;;;12.03;;
57047;SDS011;42934;54.294;18.598;2023-05-03T21:09:06;26.65;;;11.23;;
57047;SDS011;42934;54.294;18.598;2023-05-03T21:11:37;23.27;;;11.60;;
57047;SDS011;42934;54.294;18.598;2023-05-03T21:14:08;23.80;;;10.90;;
57047;SDS011;42934;54.294;18.598;2023-05-03T21:16:39;23.83;;;10.85;;
57047;SDS011;42934;54.294;18.598;2023-05-03T21:19:08;24.13;;;10.68;;
57047;SDS011;42934;54.294;18.598;2023-05-03T21:21:38;25.25;;;11.30;;
57047;SDS011;42934;54.294;18.598;2023-05-03T21:24:09;23.90;;;10.77;;
57047;SDS011;42934;54.294;18.598;2023-05-03T21:26:38;27.38;;;11.43;;
57047;SDS011;42934;54.294;18.598;2023-05-03T21:29:08;23.93;;;10.50;;
57047;SDS011;42934;54.294;18.598;2023-05-03T21:31:38;18.17;;;10.25;;
57047;SDS011;42934;54.294;18.598;2023-05-03T21:34:07;22.95;;;9.85;;
57047;SDS011;42934;54.294;18.598;2023-05-03T21:36:36;16.83;;;8.67;;
57047;SDS011;42934;54.294;18.598;2023-05-03T21:39:05;14.73;;;8.13;;
57047;SDS011;42934;54.294;18.598;2023-05-03T21:41:37;19.65;;;8.27;;
57047;SDS011;42934;54.294;18.598;2023-05-03T21:44:06;14.10;;;8.00;;
57047;SDS011;42934;54.294;18.598;2023-05-03T21:46:35;16.93;;;8.87;;
57047;SDS011;42934;54.294;18.598;2023-05-03T21:49:04;20.77;;;9.45;;
57047;SDS011;42934;54.294;18.598;2023-05-03T21:51:34;19.10;;;8.60;;
57047;SDS011;42934;54.294;18.598;2023-05-03T21:54:03;17.13;;;8.60;;
57047;SDS011;42934;54.294;18.598;2023-05-03T21:56:32;20.85;;;8.88;;
57047;SDS011;42934;54.294;18.598;2023-05-03T21:59:03;17.13;;;8.55;;
57047;SDS011;42934;54.294;18.598;2023-05-03T22:01:32;21.08;;;8.27;;
57047;SDS011;42934;54.294;18.598;2023-05-03T22:04:02;20.50;;;9.95;;
57047;SDS011;42934;54.294;18.598;2023-05-03T22:06:31;19.50;;;9.32;;
57047;SDS011;42934;54.294;18.598;2023-05-03T22:09:01;19.40;;;8.73;;
57047;SDS011;42934;54.294;18.598;2023-05-03T22:11:30;19.53;;;8.63;;
57047;SDS011;42934;54.294;18.598;2023-05-03T22:13:59;14.30;;;7.32;;
57047;SDS011;42934;54.294;18.598;2023-05-03T22:16:35;19.92;;;8.15;;
57047;SDS011;42934;54.294;18.598;2023-05-03T22:19:07;16.55;;;7.57;;
57047;SDS011;42934;54.294;18.598;2023-05-03T22:21:38;17.27;;;7.57;;
57047;SDS011;42934;54.294;18.598;2023-05-03T22:24:07;16.60;;;7.53;;
57047;SDS011;42934;54.294;18.598;2023-05-03T22:26:37;18.92;;;7.35;;
57047;SDS011;42934;54.294;18.598;2023-05-03T22:29:06;15.27;;;7.95;;
57047;SDS011;42934;54.294;18.598;2023-05-03T22:31:37;16.05;;;8.90;;
57047;SDS011;42934;54.294;18.598;2023-05-03T22:34:06;15.18;;;7.07;;
57047;SDS011;42934;54.294;18.598;2023-05-03T22:36:35;18.90;;;6.90;;
57047;SDS011;42934;54.294;18.598;2023-05-03T22:39:05;17.45;;;7.78;;
57047;SDS011;42934;54.294;18.598;2023-05-03T22:41:34;17.23;;;7.65;;
57047;SDS011;42934;54.294;18.598;2023-05-03T22:44:03;15.05;;;6.50;;
57047;SDS011;42934;54.294;18.598;2023-05-03T22:46:33;15.88;;;6.55;;
57047;SDS011;42934;54.294;18.598;2023-05-03T22:49:03;17.33;;;5.90;;
57047;SDS011;42934;54.294;18.598;2023-05-03T22:51:33;15.45;;;6.22;;
57047;SDS011;42934;54.294;18.598;2023-05-03T22:54:02;12.57;;;5.50;;
57047;SDS011;42934;54.294;18.598;2023-05-03T22:56:32;13.70;;;5.53;;
57047;SDS011;42934;54.294;18.598;2023-05-03T22:59:01;11.85;;;5.25;;
57047;SDS011;42934;54.294;18.598;2023-05-03T23:01:30;15.27;;;5.80;;
57047;SDS011;42934;54.294;18.598;2023-05-03T23:04:00;16.92;;;5.72;;
57047;SDS011;42934;54.294;18.598;2023-05-03T23:06:31;12.77;;;5.78;;
57047;SDS011;42934;54.294;18.598;2023-05-03T23:09:00;13.68;;;5.07;;
57047;SDS011;42934;54.294;18.598;2023-05-03T23:11:30;14.02;;;5.80;;
57047;SDS011;42934;54.294;18.598;2023-05-03T23:13:59;11.85;;;5.15;;
57047;SDS011;42934;54.294;18.598;2023-05-03T23:16:28;15.60;;;6.00;;
57047;SDS011;42934;54.294;18.598;2023-05-03T23:18:58;12.82;;;5.72;;
57047;SDS011;42934;54.294;18.598;2023-05-03T23:21:28;13.85;;;6.32;;
57047;SDS011;42934;54.294;18.598;2023-05-03T23:23:59;14.10;;;6.10;;
57047;SDS011;42934;54.294;18.598;2023-05-03T23:26:29;13.27;;;5.95;;
57047;SDS011;42934;54.294;18.598;2023-05-03T23:28:58;16.23;;;6.68;;
57047;SDS011;42934;54.294;18.598;2023-05-03T23:31:28;13.73;;;6.70;;
57047;SDS011;42934;54.294;18.598;2023-05-03T23:34:00;13.55;;;6.57;;
57047;SDS011;42934;54.294;18.598;2023-05-03T23:36:31;14.05;;;6.57;;
57047;SDS011;42934;54.294;18.598;2023-05-03T23:39:01;13.95;;;6.25;;
57047;SDS011;42934;54.294;18.598;2023-05-03T23:41:31;15.10;;;6.97;;
57047;SDS011;42934;54.294;18.598;2023-05-03T23:44:00;14.63;;;7.13;;
57047;SDS011;42934;54.294;18.598;2023-05-03T23:46:29;15.57;;;6.35;;
57047;SDS011;42934;54.294;18.598;2023-05-03T23:51:28;14.73;;;6.45;;
57047;SDS011;42934;54.294;18.598;2023-05-03T23:53:58;17.13;;;6.87;;
57047;SDS011;42934;54.294;18.598;2023-05-03T23:56:28;13.65;;;5.50;;
57047;SDS011;42934;54.294;18.598;2023-05-03T23:58:58;12.50;;;6.05;;
